createdAt,value
2022-12-18T00:03:02.081Z,99102.28
2022-12-18T00:06:04.372Z,99096.25
2022-12-18T00:09:06.428Z,99087.66
2022-12-18T00:15:17.958Z,99109.19
2022-12-18T00:18:20.758Z,99106.59
2022-12-18T00:21:23.310Z,99110.94
2022-12-18T00:24:25.569Z,99107.53
2022-12-18T00:27:27.618Z,99112.75
2022-12-18T00:30:29.738Z,99110.25
2022-12-18T00:33:32.027Z,99116.31
2022-12-18T00:36:35.573Z,99112.88
2022-12-18T00:39:37.610Z,99118.97
2022-12-18T00:42:57.954Z,99118.09
2022-12-18T00:46:00.079Z,99119.84
2022-12-18T00:49:02.405Z,99123.28
2022-12-18T00:52:04.606Z,99127.56
2022-12-18T00:55:07.354Z,99126.69
2022-12-18T00:58:11.350Z,99136.94
2022-12-18T01:01:13.742Z,99136.94
2022-12-18T01:04:16.687Z,99144.59
2022-12-18T01:07:21.109Z,99146.28
2022-12-18T01:10:24.695Z,99153.97
2022-12-18T01:13:26.812Z,99155.63
2022-12-18T01:16:29.056Z,99160.75
2022-12-18T01:19:32.312Z,99159.84
2022-12-18T01:22:34.462Z,99163.22
2022-12-18T01:25:39.873Z,99171.72
2022-12-18T01:28:45.730Z,99167.41
2022-12-18T01:31:47.819Z,99167.38
2022-12-18T01:34:49.959Z,99168.16
2022-12-18T01:37:56.586Z,99175.00
2022-12-18T01:41:00.053Z,99174.94
2022-12-18T01:44:03.522Z,99173.13
2022-12-18T01:47:06.583Z,99174.84
2022-12-18T01:50:19.504Z,99180.78
2022-12-18T01:53:24.666Z,99192.72
2022-12-18T01:56:26.897Z,99189.28
2022-12-18T01:59:31.338Z,99186.63
2022-12-18T02:02:34.199Z,99189.97
2022-12-18T02:06:05.088Z,99182.19
2022-12-18T02:09:13.517Z,99204.44
2022-12-18T02:12:18.985Z,99199.19
2022-12-18T02:15:34.295Z,99202.59
2022-12-18T02:18:45.656Z,99199.97
2022-12-18T02:21:51.910Z,99204.19
2022-12-18T02:25:11.897Z,99200.75
2022-12-18T02:28:16.885Z,99205.81
2022-12-18T02:31:25.106Z,99211.72
2022-12-18T02:34:33.888Z,99216.81
2022-12-18T02:37:38.348Z,99215.00
2022-12-18T02:40:43.592Z,99213.19
2022-12-18T02:44:03.541Z,99217.41
2022-12-18T02:47:13.740Z,99223.25
2022-12-18T02:50:38.217Z,99217.16
2022-12-18T02:53:52.124Z,99233.34
2022-12-18T02:56:57.750Z,99236.69
2022-12-18T03:00:03.132Z,99234.91
2022-12-18T03:03:20.301Z,99234.78
2022-12-18T03:06:49.707Z,99236.41
2022-12-18T03:09:55.738Z,99244.09
2022-12-18T03:13:06.270Z,99250.03
2022-12-18T03:16:16.358Z,99249.22
2022-12-18T03:19:23.047Z,99245.81
2022-12-18T03:22:31.466Z,99253.56
2022-12-18T03:25:36.040Z,99247.63
2022-12-18T03:28:43.672Z,99239.06
2022-12-18T03:31:52.624Z,99241.41
2022-12-18T03:35:02.150Z,99250.66
2022-12-18T03:38:08.222Z,99254.84
2022-12-18T03:41:24.359Z,99264.19
2022-12-18T03:44:54.423Z,99259.94
2022-12-18T03:48:14.205Z,99273.50
2022-12-18T03:51:44.922Z,99275.81
2022-12-18T03:54:48.443Z,99274.84
2022-12-18T03:57:55.035Z,99272.28
2022-12-18T04:01:03.451Z,99272.16
2022-12-18T04:04:06.861Z,99272.81
2022-12-18T04:07:13.257Z,99286.41
2022-12-18T04:10:16.949Z,99287.25
2022-12-18T04:13:30.088Z,99294.03
2022-12-18T04:16:34.523Z,99287.97
2022-12-18T04:19:39.177Z,99296.41
2022-12-18T04:22:43.359Z,99307.38
2022-12-18T04:25:48.110Z,99298.84
2022-12-18T04:28:56.562Z,99305.69
2022-12-18T04:31:58.621Z,99306.53
2022-12-18T04:35:01.595Z,99310.78
2022-12-18T04:38:03.692Z,99315.75
2022-12-18T04:41:06.075Z,99316.50
2022-12-18T04:44:08.251Z,99324.06
2022-12-18T04:47:10.319Z,99317.22
2022-12-18T04:50:12.477Z,99322.34
2022-12-18T04:53:14.576Z,99326.53
2022-12-18T04:56:17.482Z,99329.88
2022-12-18T04:59:19.505Z,99331.59
2022-12-18T05:02:21.727Z,99334.16
2022-12-18T05:05:23.975Z,99342.63
2022-12-18T05:08:26.215Z,99348.41
2022-12-18T05:11:28.282Z,99354.28
2022-12-18T05:14:30.536Z,99348.34
2022-12-18T05:17:32.562Z,99358.59
2022-12-18T05:20:34.777Z,99361.09
2022-12-18T05:23:37.417Z,99361.88
2022-12-18T05:26:39.761Z,99353.22
2022-12-18T05:29:41.826Z,99352.25
2022-12-18T05:32:44.050Z,99353.91
2022-12-18T05:35:51.035Z,99354.69
2022-12-18T05:38:53.071Z,99354.66
2022-12-18T05:41:55.161Z,99354.56
2022-12-18T05:44:57.299Z,99360.50
2022-12-18T05:47:59.456Z,99357.00
2022-12-18T05:51:10.115Z,99356.97
2022-12-18T05:54:12.564Z,99368.88
2022-12-18T05:57:14.762Z,99369.66
2022-12-18T06:00:17.413Z,99384.09
2022-12-18T06:03:19.567Z,99367.00
2022-12-18T06:06:24.827Z,99377.25
2022-12-18T06:09:26.875Z,99390.75
2022-12-18T06:12:28.928Z,99385.59
2022-12-18T06:15:31.056Z,99391.53
2022-12-18T06:18:33.704Z,99396.69
2022-12-18T06:21:35.890Z,99382.19
2022-12-18T06:24:38.399Z,99387.16
2022-12-18T06:27:40.479Z,99393.09
2022-12-18T06:30:48.242Z,99389.63
2022-12-18T06:33:50.309Z,99387.91
2022-12-18T06:36:52.432Z,99393.00
2022-12-18T06:39:55.220Z,99393.88
2022-12-18T06:42:57.508Z,99404.91
2022-12-18T06:46:01.489Z,99403.91
2022-12-18T06:49:03.582Z,99412.38
2022-12-18T06:52:05.671Z,99416.78
2022-12-18T06:55:12.104Z,99411.78
2022-12-18T06:58:14.255Z,99417.94
2022-12-18T07:01:16.532Z,99418.78
2022-12-18T07:04:18.726Z,99428.25
2022-12-18T07:07:20.927Z,99427.56
2022-12-18T07:10:22.971Z,99431.03
2022-12-18T07:13:25.193Z,99438.66
2022-12-18T07:16:29.527Z,99444.69
2022-12-18T07:19:31.595Z,99447.28
2022-12-18T07:22:34.426Z,99452.50
2022-12-18T07:25:37.496Z,99464.59
2022-12-18T07:28:40.933Z,99475.81
2022-12-18T07:31:43.348Z,99473.44
2022-12-18T07:34:45.513Z,99471.84
2022-12-18T07:37:49.287Z,99481.44
2022-12-18T07:40:51.377Z,99485.81
2022-12-18T07:43:53.517Z,99491.94
2022-12-18T07:46:55.631Z,99492.81
2022-12-18T07:49:57.750Z,99488.72
2022-12-18T07:53:04.687Z,99502.56
2022-12-18T07:59:32.388Z,99503.59
2022-12-18T08:02:34.569Z,99502.13
2022-12-18T08:05:36.812Z,99512.56
2022-12-18T08:08:39.001Z,99515.44
2022-12-18T08:11:41.287Z,99510.53
2022-12-18T08:14:43.418Z,99508.28
2022-12-18T08:17:45.497Z,99506.22
2022-12-18T08:20:47.568Z,99495.34
2022-12-18T08:23:51.764Z,99498.94
2022-12-18T08:27:20.844Z,99490.81
2022-12-18T08:30:16.364Z,99499.00
2022-12-18T08:33:18.423Z,99501.31
2022-12-18T08:36:23.441Z,99498.53
2022-12-18T08:39:26.632Z,99495.47
2022-12-18T08:42:47.089Z,99492.41
2022-12-18T08:45:50.185Z,99493.66
2022-12-18T08:48:53.678Z,99492.25
2022-12-18T08:51:58.350Z,99498.47
2022-12-18T08:55:00.503Z,99495.19
2022-12-18T08:58:02.503Z,99500.50
2022-12-18T09:01:07.055Z,99511.81
2022-12-18T09:04:10.657Z,99512.75
2022-12-18T09:07:12.769Z,99515.41
2022-12-18T09:10:14.953Z,99518.91
2022-12-18T09:13:18.277Z,99513.81
2022-12-18T09:16:21.084Z,99501.00
2022-12-18T09:19:23.195Z,99505.34
2022-12-18T09:22:25.216Z,99503.69
2022-12-18T09:25:28.928Z,99499.44
2022-12-18T09:28:31.083Z,99497.66
2022-12-18T09:31:33.098Z,99503.66
2022-12-18T09:34:35.392Z,99503.66
2022-12-18T09:37:37.461Z,99495.06
2022-12-18T09:40:48.611Z,99487.31
2022-12-18T09:44:00.929Z,99485.63
2022-12-18T09:47:31.838Z,99494.28
2022-12-18T09:50:41.200Z,99496.84
2022-12-18T09:53:51.881Z,99503.72
2022-12-18T09:56:53.971Z,99498.44
2022-12-18T10:00:11.480Z,99494.22
2022-12-18T10:03:17.453Z,99497.69
2022-12-18T10:06:43.384Z,99484.75
2022-12-18T10:09:57.816Z,99489.06
2022-12-18T10:13:21.018Z,99479.50
2022-12-18T10:16:28.719Z,99486.38
2022-12-18T10:19:30.771Z,99475.22
2022-12-18T10:22:35.454Z,99480.38
2022-12-18T10:25:47.128Z,99488.16
2022-12-18T10:28:49.177Z,99483.81
2022-12-18T10:31:52.796Z,99487.28
2022-12-18T10:35:00.720Z,99488.13
2022-12-18T10:38:07.253Z,99475.19
2022-12-18T10:41:26.971Z,99482.13
2022-12-18T10:44:29.685Z,99470.94
2022-12-18T10:47:31.846Z,99476.09
2022-12-18T10:51:09.065Z,99470.06
2022-12-18T10:54:02.693Z,99465.78
2022-12-18T10:57:28.058Z,99458.06
2022-12-18T11:00:32.124Z,99465.84
2022-12-18T11:03:37.405Z,99452.88
2022-12-18T11:06:58.741Z,99461.50
2022-12-18T11:10:02.468Z,99449.44
2022-12-18T11:13:32.592Z,99446.88
2022-12-18T11:16:38.661Z,99450.28
2022-12-18T11:19:42.577Z,99456.34
2022-12-18T11:22:44.782Z,99452.03
2022-12-18T11:26:02.897Z,99446.88
2022-12-18T11:29:18.866Z,99447.69
2022-12-18T11:32:43.500Z,99447.69
2022-12-18T11:35:53.280Z,99451.97
2022-12-18T11:38:56.789Z,99446.81
2022-12-18T11:42:24.417Z,99439.97
2022-12-18T11:45:37.599Z,99435.66
2022-12-18T11:48:46.278Z,99422.72
2022-12-18T11:52:01.646Z,99427.84
2022-12-18T11:55:12.772Z,99425.28
2022-12-18T11:58:39.184Z,99420.16
2022-12-18T12:01:51.964Z,99420.13
2022-12-18T12:04:54.182Z,99423.56
2022-12-18T12:08:40.849Z,99418.41
2022-12-18T12:11:45.759Z,99414.97
2022-12-18T12:15:18.646Z,99422.72
2022-12-18T12:18:48.101Z,99416.69
2022-12-18T12:21:56.577Z,99414.97
2022-12-18T12:25:07.560Z,99415.00
2022-12-18T12:28:15.244Z,99413.28
2022-12-18T12:31:38.987Z,99419.28
2022-12-18T12:35:30.891Z,99406.38
2022-12-18T12:38:52.304Z,99414.13
2022-12-18T12:42:18.678Z,99415.84
2022-12-18T12:45:32.301Z,99404.63
2022-12-18T12:48:37.014Z,99409.81
2022-12-18T12:51:44.119Z,99408.94
2022-12-18T12:54:47.982Z,99402.06
2022-12-18T12:57:59.272Z,99413.25
2022-12-18T13:01:06.554Z,99415.84
2022-12-18T13:04:23.034Z,99417.56
2022-12-18T13:07:27.943Z,99425.31
2022-12-18T13:10:42.758Z,99433.06
2022-12-18T13:13:53.287Z,99439.06
2022-12-18T13:17:32.332Z,99442.50
2022-12-18T13:20:38.576Z,99445.06
2022-12-18T13:23:42.158Z,99445.03
2022-12-18T13:26:44.518Z,99434.72
2022-12-18T13:29:47.427Z,99441.59
2022-12-18T13:32:49.658Z,99425.25
2022-12-18T13:35:54.185Z,99427.78
2022-12-18T13:39:25.794Z,99428.63
2022-12-18T13:42:49.210Z,99427.78
2022-12-18T13:46:07.837Z,99437.25
2022-12-18T13:49:15.634Z,99445.88
2022-12-18T13:52:25.756Z,99441.56
2022-12-18T13:55:28.493Z,99450.13
2022-12-18T13:58:30.678Z,99450.16
2022-12-18T14:01:32.981Z,99455.31
2022-12-18T14:04:36.904Z,99457.88
2022-12-18T14:07:42.970Z,99463.91
2022-12-18T14:10:52.369Z,99463.91
2022-12-18T14:13:54.522Z,99468.19
2022-12-18T14:16:56.641Z,99468.19
2022-12-18T14:19:59.361Z,99470.75
2022-12-18T14:23:02.255Z,99473.31
2022-12-18T14:26:30.629Z,99480.19
2022-12-18T14:29:36.240Z,99474.31
2022-12-18T14:32:38.394Z,99491.41
2022-12-18T14:35:44.066Z,99493.06
2022-12-18T14:38:50.662Z,99486.16
2022-12-18T14:41:54.670Z,99487.03
2022-12-18T14:45:39.116Z,99500.78
2022-12-18T14:48:48.399Z,99487.88
2022-12-18T14:51:54.374Z,99493.91
2022-12-18T14:54:56.529Z,99495.63
2022-12-18T14:57:59.275Z,99498.19
2022-12-18T15:01:01.788Z,99498.19
2022-12-18T15:04:06.795Z,99501.59
2022-12-18T15:07:23.483Z,99504.19
2022-12-18T15:10:29.497Z,99516.19
2022-12-18T15:13:32.594Z,99503.28
2022-12-18T15:16:37.495Z,99509.31
2022-12-18T15:19:46.263Z,99514.44
2022-12-18T15:22:51.037Z,99511.00
2022-12-18T15:25:59.863Z,99501.53
2022-12-18T15:29:04.944Z,99508.44
2022-12-18T15:32:21.353Z,99503.28
2022-12-18T15:35:26.774Z,99505.84
2022-12-18T15:38:32.658Z,99510.97
2022-12-18T15:41:37.959Z,99517.00
2022-12-18T15:44:41.878Z,99519.59
2022-12-18T15:47:48.164Z,99523.88
2022-12-18T15:50:58.173Z,99525.63
2022-12-18T15:54:05.611Z,99528.22
2022-12-18T15:57:29.642Z,99528.19
2022-12-18T16:00:42.665Z,99532.47
2022-12-18T16:03:46.691Z,99529.91
2022-12-18T16:10:17.281Z,99524.84
2022-12-18T16:13:22.155Z,99511.03
2022-12-18T16:16:25.288Z,99522.22
2022-12-18T16:19:32.103Z,99519.66
2022-12-18T16:22:38.014Z,99514.47
2022-12-18T16:25:42.403Z,99509.31
2022-12-18T16:28:48.504Z,99520.53
2022-12-18T16:31:52.219Z,99518.78
2022-12-18T16:35:00.871Z,99511.91
2022-12-18T16:38:05.333Z,99509.34
2022-12-18T16:41:33.236Z,99511.94
2022-12-18T16:44:36.480Z,99514.53
2022-12-18T16:47:42.426Z,99512.81
2022-12-18T16:50:45.809Z,99512.81
2022-12-18T16:53:48.686Z,99506.78
2022-12-18T16:56:52.628Z,99507.63
2022-12-18T16:59:59.909Z,99508.47
2022-12-18T17:03:06.088Z,99506.78
2022-12-18T17:06:12.269Z,99499.00
2022-12-18T17:09:18.254Z,99500.75
2022-12-18T17:12:22.947Z,99497.34
2022-12-18T17:15:26.645Z,99500.81
2022-12-18T17:18:30.396Z,99488.75
2022-12-18T17:21:33.911Z,99490.50
2022-12-18T17:24:38.390Z,99486.22
2022-12-18T17:27:41.782Z,99493.13
2022-12-18T17:30:46.332Z,99482.78
2022-12-18T17:33:49.831Z,99486.22
2022-12-18T17:36:54.450Z,99482.78
2022-12-18T17:39:57.448Z,99489.66
2022-12-18T17:43:03.508Z,99491.41
2022-12-18T17:46:08.326Z,99485.38
2022-12-18T17:49:13.125Z,99494.84
2022-12-18T17:52:16.274Z,99487.13
2022-12-18T17:55:19.618Z,99483.69
2022-12-18T17:58:23.326Z,99481.94
2022-12-18T18:01:26.875Z,99496.59
2022-12-18T18:04:31.721Z,99497.44
2022-12-18T18:07:35.069Z,99488.00
2022-12-18T18:10:40.243Z,99479.41
2022-12-18T18:14:02.397Z,99483.72
2022-12-18T18:17:05.521Z,99486.31
2022-12-18T18:20:10.775Z,99477.69
2022-12-18T18:23:13.271Z,99482.88
2022-12-18T18:26:18.081Z,99480.31
2022-12-18T18:29:27.071Z,99478.59
2022-12-18T18:32:32.062Z,99482.88
2022-12-18T18:35:55.129Z,99486.34
2022-12-18T18:39:01.101Z,99478.63
2022-12-18T18:42:05.289Z,99471.75
2022-12-18T18:45:08.989Z,99479.50
2022-12-18T18:48:13.594Z,99483.78
2022-12-18T18:51:21.787Z,99482.94
2022-12-18T18:54:25.804Z,99493.28
2022-12-18T18:57:30.496Z,99488.13
2022-12-18T19:00:34.052Z,99487.28
2022-12-18T19:03:40.169Z,99481.25
2022-12-18T19:06:46.886Z,99480.38
2022-12-18T19:09:52.610Z,99479.50
2022-12-18T19:13:14.170Z,99468.31
2022-12-18T19:16:17.188Z,99482.97
2022-12-18T19:19:24.058Z,99481.25
2022-12-18T19:22:28.444Z,99488.13
2022-12-18T19:25:38.351Z,99482.97
2022-12-18T19:28:44.737Z,99472.63
2022-12-18T19:31:48.130Z,99467.47
2022-12-18T19:34:51.891Z,99461.44
2022-12-18T19:37:55.366Z,99473.50
2022-12-18T19:41:00.452Z,99471.78
2022-12-18T19:44:05.196Z,99464.06
2022-12-18T19:47:11.463Z,99468.38
2022-12-18T19:50:14.334Z,99465.75
2022-12-18T19:53:17.034Z,99470.06
2022-12-18T19:56:22.577Z,99473.53
2022-12-18T19:59:25.753Z,99470.06
2022-12-18T20:02:30.963Z,99466.63
2022-12-18T20:05:35.540Z,99461.47
2022-12-18T20:08:38.903Z,99470.06
2022-12-18T20:11:42.558Z,99470.94
2022-12-18T20:14:45.552Z,99467.50
2022-12-18T20:17:48.461Z,99460.63
2022-12-18T20:20:51.228Z,99458.03
2022-12-18T20:23:56.062Z,99460.63
2022-12-18T20:26:59.421Z,99464.94
2022-12-18T20:30:02.678Z,99456.31
2022-12-18T20:33:05.687Z,99459.75
2022-12-18T20:36:13.138Z,99457.19
2022-12-18T20:39:18.485Z,99458.88
2022-12-18T20:42:21.773Z,99457.16
2022-12-18T20:45:24.963Z,99452.84
2022-12-18T20:48:28.617Z,99459.75
2022-12-18T20:51:32.312Z,99447.69
2022-12-18T20:54:36.146Z,99427.91
2022-12-18T20:57:42.275Z,99428.75
2022-12-18T21:00:45.983Z,99426.19
2022-12-18T21:03:49.213Z,99427.03
2022-12-18T21:06:57.995Z,99430.50
2022-12-18T21:10:05.028Z,99429.63
2022-12-18T21:13:07.898Z,99427.03
2022-12-18T21:16:12.457Z,99426.16
2022-12-18T21:19:19.880Z,99433.94
2022-12-18T21:22:21.997Z,99426.19
2022-12-18T21:25:24.449Z,99422.72
2022-12-18T21:28:26.566Z,99416.69
2022-12-18T21:31:32.055Z,99411.53
2022-12-18T21:34:34.394Z,99402.91
2022-12-18T21:37:37.080Z,99414.13
2022-12-18T21:40:39.762Z,99408.09
2022-12-18T21:44:00.307Z,99416.69
2022-12-18T21:47:15.148Z,99402.06
2022-12-18T21:50:24.032Z,99391.72
2022-12-18T21:53:26.771Z,99402.06
2022-12-18T21:56:45.344Z,99401.19
2022-12-18T21:59:47.369Z,99396.03
2022-12-18T22:03:01.113Z,99402.94
2022-12-18T22:06:12.558Z,99411.53
2022-12-18T22:09:17.651Z,99398.63
2022-12-18T22:12:35.801Z,99402.06
2022-12-18T22:15:45.314Z,99402.06
2022-12-18T22:18:47.393Z,99392.59
2022-12-18T22:21:49.671Z,99392.59
2022-12-18T22:24:51.839Z,99394.31
2022-12-18T22:28:12.502Z,99380.53
2022-12-18T22:31:14.677Z,99385.72
2022-12-18T22:34:21.894Z,99379.69
2022-12-18T22:37:24.972Z,99381.41
2022-12-18T22:40:27.814Z,99373.66
2022-12-18T22:43:30.566Z,99371.06
2022-12-18T22:46:35.942Z,99373.66
2022-12-18T22:49:38.952Z,99370.19
2022-12-18T22:52:41.552Z,99360.72
2022-12-18T22:55:43.640Z,99360.72
2022-12-18T22:58:49.375Z,99358.13
2022-12-18T23:01:58.001Z,99352.97
2022-12-18T23:05:01.276Z,99350.41
2022-12-18T23:08:03.387Z,99346.09
2022-12-18T23:11:06.423Z,99343.50
2022-12-18T23:14:08.607Z,99348.66
2022-12-18T23:17:10.765Z,99345.25
2022-12-18T23:20:12.931Z,99346.06
2022-12-18T23:23:15.065Z,99344.38
2022-12-18T23:26:20.155Z,99342.66
2022-12-18T23:29:22.184Z,99334.88
2022-12-18T23:32:24.177Z,99328.88
2022-12-18T23:35:26.790Z,99328.88
2022-12-18T23:38:29.989Z,99329.72
2022-12-18T23:41:32.989Z,99321.13
2022-12-18T23:44:35.234Z,99321.13
2022-12-18T23:47:37.399Z,99325.44
2022-12-18T23:50:39.445Z,99318.56
2022-12-18T23:53:41.984Z,99310.81
2022-12-18T23:56:44.015Z,99313.38
2022-12-18T23:59:46.129Z,99313.38
